Time;durP1;ratioP1;P1;durP2;ratioP2;P2;SDS_P1;SDS_P2;PMS_P1;PMS_P2;Temp;Humidity;BMP_temperature;BMP_pressure;BME280_temperature;BME280_humidity;BME280_pressure;Samples;Min_cycle;Max_cycle;Signal;HPM_P1;HPM_P2
2021/11/04 00:00:17;;;;;;;49.53;28.95;;;;;;;5.84;100.00;99521.22;675444;29;4573;-84
2021/11/04 00:00:38;;;;;;;50.80;29.50;;;;;;;5.79;100.00;99524.69;675879;29;5523;-85
2021/11/04 00:00:59;;;;;;;53.38;29.73;;;;;;;5.79;100.00;99545.44;675861;29;1228;-85
2021/11/04 00:01:19;;;;;;;50.53;29.53;;;;;;;5.77;100.00;99529.03;676654;29;1726;-85
2021/11/04 00:01:41;;;;;;;52.58;29.00;;;;;;;5.76;100.00;99527.31;675024;29;1235;-84
2021/11/04 00:02:02;;;;;;;52.92;29.08;;;;;;;5.77;100.00;99541.13;675806;29;1238;-84
2021/11/04 00:02:23;;;;;;;53.85;28.80;;;;;;;5.78;100.00;99541.13;678880;29;4066;-85
2021/11/04 00:02:45;;;;;;;49.53;28.90;;;;;;;5.79;100.00;99531.63;680831;28;3002;-86
2021/11/04 00:03:05;;;;;;;51.75;28.73;;;;;;;5.77;100.00;99518.66;683376;28;4345;-86
2021/11/04 00:03:33;;;;;;;51.83;29.05;;;;;;;5.79;100.00;99526.44;681502;29;1143;-85
2021/11/04 00:03:54;;;;;;;56.00;29.92;;;;;;;5.78;100.00;99520.38;678949;29;1616;-85
2021/11/04 00:04:14;;;;;;;54.53;29.88;;;;;;;5.79;100.00;99524.69;679140;29;1432;-86
2021/11/04 00:04:35;;;;;;;52.00;29.53;;;;;;;5.76;100.00;99527.31;674299;29;2576;-85
2021/11/04 00:04:56;;;;;;;50.88;29.20;;;;;;;5.73;100.00;99516.06;677411;29;1402;-86
2021/11/04 00:05:17;;;;;;;51.00;29.13;;;;;;;5.72;100.00;99548.94;680583;28;1298;-85
2021/11/04 00:05:38;;;;;;;55.95;29.92;;;;;;;5.72;100.00;99541.16;677534;29;3853;-85
2021/11/04 00:06:10;;;;;;;54.65;28.92;;;;;;;5.75;100.00;99517.78;677035;29;1649;-84
2021/11/04 00:06:31;;;;;;;53.38;29.05;;;;;;;5.84;100.00;99539.38;677499;29;5103;-86
2021/11/04 00:06:54;;;;;;;52.70;28.25;;;;;;;5.84;100.00;99540.22;678036;29;1369;-85
2021/11/04 00:07:14;;;;;;;54.47;29.67;;;;;;;5.83;100.00;99522.97;678227;29;1641;-85
2021/11/04 00:07:35;;;;;;;52.90;29.80;;;;;;;5.80;100.00;99513.47;677224;29;2019;-85
2021/11/04 00:07:59;;;;;;;52.53;29.73;;;;;;;5.80;100.00;99523.84;678139;29;1069;-85
2021/11/04 00:08:20;;;;;;;52.58;28.08;;;;;;;5.85;100.00;99543.72;677153;29;1959;-86
2021/11/04 00:08:41;;;;;;;53.08;28.85;;;;;;;5.82;100.00;99552.34;679174;29;3636;-85
2021/11/04 00:09:02;;;;;;;54.70;29.67;;;;;;;5.78;100.00;99548.91;676885;29;1721;-86
2021/11/04 00:09:26;;;;;;;53.33;29.80;;;;;;;5.80;100.00;99523.84;669425;29;4679;-85
2021/11/04 00:09:53;;;;;;;54.38;29.73;;;;;;;5.82;100.00;99516.03;675457;29;1656;-84
2021/11/04 00:10:16;;;;;;;52.88;28.80;;;;;;;5.76;100.00;99537.69;675960;29;1569;-85
2021/11/04 00:10:39;;;;;;;55.75;29.38;;;;;;;5.73;100.00;99532.50;676398;29;5175;-84
2021/11/04 00:10:59;;;;;;;56.83;29.40;;;;;;;5.73;100.00;99544.59;677679;29;1381;-85
2021/11/04 00:11:21;;;;;;;55.28;29.30;;;;;;;5.74;100.00;99548.94;676568;29;2632;-85
2021/11/04 00:11:41;;;;;;;55.47;30.00;;;;;;;5.74;100.00;99523.84;679936;28;2086;-86
2021/11/04 00:12:02;;;;;;;54.17;28.95;;;;;;;5.75;100.00;99520.38;676766;29;4584;-85
2021/11/04 00:12:23;;;;;;;56.37;29.30;;;;;;;5.74;100.00;99543.72;674069;29;1334;-85
2021/11/04 00:12:44;;;;;;;58.00;29.87;;;;;;;5.74;100.00;99551.50;674105;29;1907;-86
2021/11/04 00:13:05;;;;;;;55.53;29.40;;;;;;;5.72;100.00;99520.41;675357;29;1670;-85
2021/11/04 00:13:25;;;;;;;55.03;29.35;;;;;;;5.78;100.00;99527.31;675980;29;1376;-85
2021/11/04 00:13:48;;;;;;;57.65;30.05;;;;;;;5.77;100.00;99516.06;677700;29;1564;-85
2021/11/04 00:14:09;;;;;;;53.78;29.20;;;;;;;5.78;100.00;99530.75;681263;28;1682;-85
2021/11/04 00:14:29;;;;;;;51.83;28.47;;;;;;;5.78;100.00;99548.03;682385;28;2757;-85
2021/11/04 00:14:53;;;;;;;52.65;28.20;;;;;;;5.80;100.00;99518.66;684670;28;1340;-86
2021/11/04 00:15:14;;;;;;;52.97;28.42;;;;;;;5.80;100.00;99523.84;681084;28;4993;-85
2021/11/04 00:15:34;;;;;;;50.97;28.17;;;;;;;5.80;100.00;99554.97;679687;29;1335;-85
2021/11/04 00:15:55;;;;;;;52.20;28.85;;;;;;;5.80;100.00;99522.94;679561;29;1468;-85
2021/11/04 00:16:15;;;;;;;53.90;28.93;;;;;;;5.79;100.00;99547.19;679217;29;1827;-85
2021/11/04 00:16:36;;;;;;;55.20;28.45;;;;;;;5.85;100.00;99512.59;678314;29;1318;-85
2021/11/04 00:16:57;;;;;;;51.78;28.67;;;;;;;5.89;100.00;99516.88;678939;29;1344;-85
2021/11/04 00:17:20;;;;;;;51.78;29.02;;;;;;;5.89;100.00;99516.88;683222;28;3337;-85
2021/11/04 00:17:41;;;;;;;54.90;29.00;;;;;;;5.87;100.00;99535.06;682507;28;2484;-85
2021/11/04 00:18:13;;;;;;;55.65;28.50;;;;;;;5.88;100.00;99522.94;679752;28;4372;-85
2021/11/04 00:18:34;;;;;;;57.22;29.60;;;;;;;5.83;100.00;99522.09;680808;29;4967;-85
2021/11/04 00:18:58;;;;;;;53.25;29.02;;;;;;;5.79;100.00;99524.69;676055;29;1222;-85
2021/11/04 00:19:24;;;;;;;48.88;26.98;;;;;;;5.80;100.00;99518.66;675473;29;1421;-85
2021/11/04 00:19:45;;;;;;;55.47;28.23;;;;;;;5.76;100.00;99529.91;673197;29;5611;-85
2021/11/04 00:20:07;;;;;;;53.37;28.27;;;;;;;5.77;100.00;99536.81;676095;29;1134;-84
2021/11/04 00:20:28;;;;;;;51.38;28.80;;;;;;;5.78;100.00;99540.28;673039;29;3232;-85
2021/11/04 00:20:48;;;;;;;51.92;28.15;;;;;;;5.85;100.00;99536.78;675853;29;1399;-85
2021/11/04 00:21:09;;;;;;;53.70;28.42;;;;;;;5.83;100.00;99525.56;675283;29;4410;-85
2021/11/04 00:21:30;;;;;;;50.65;27.20;;;;;;;5.83;100.00;99527.28;676367;29;1172;-86
2021/11/04 00:21:51;;;;;;;47.35;27.33;;;;;;;5.80;100.00;99523.84;676814;29;985;-85
2021/11/04 00:22:11;;;;;;;51.10;28.57;;;;;;;5.83;100.00;99532.47;680116;29;1370;-85
2021/11/04 00:22:33;;;;;;;56.92;28.58;;;;;;;5.82;100.00;99521.22;681389;28;5562;-85
2021/11/04 00:22:57;;;;;;;49.60;27.23;;;;;;;5.84;100.00;99518.63;682770;28;1301;-85
2021/11/04 00:23:19;;;;;;;49.03;26.75;;;;;;;5.86;100.00;99514.31;677788;29;4894;-84
2021/11/04 00:23:39;;;;;;;47.72;27.27;;;;;;;5.87;100.00;99519.50;678229;29;1464;-84
2021/11/04 00:24:03;;;;;;;50.03;27.30;;;;;;;5.88;100.00;99516.00;678119;29;4979;-84
2021/11/04 00:24:27;;;;;;;51.63;27.70;;;;;;;5.89;100.00;99522.06;676645;29;1257;-84
2021/11/04 00:24:48;;;;;;;52.88;27.52;;;;;;;5.89;100.00;99529.84;679034;29;6152;-84
2021/11/04 00:25:15;;;;;;;50.42;27.42;;;;;;;5.93;100.00;99514.25;679243;29;5450;-84
2021/11/04 00:25:39;;;;;;;50.45;28.15;;;;;;;5.94;100.00;99541.06;679633;28;5586;-84
2021/11/04 00:26:04;;;;;;;49.85;26.50;;;;;;;5.91;100.00;99544.56;678197;29;1264;-84
2021/11/04 00:26:26;;;;;;;45.13;26.58;;;;;;;5.90;100.00;99521.22;675473;29;3297;-84
2021/11/04 00:26:50;;;;;;;48.20;27.67;;;;;;;5.92;100.00;99522.06;678294;29;1617;-84
2021/11/04 00:27:11;;;;;;;52.03;27.60;;;;;;;5.86;100.00;99533.31;676582;29;5316;-84
2021/11/04 00:27:31;;;;;;;50.40;27.70;;;;;;;5.84;100.00;99529.00;678601;29;1555;-86
2021/11/04 00:27:52;;;;;;;51.27;28.07;;;;;;;5.80;100.00;99520.34;678939;29;1501;-85
2021/11/04 00:28:12;;;;;;;50.78;28.08;;;;;;;5.78;100.00;99546.31;679981;29;1282;-84
2021/11/04 00:28:33;;;;;;;51.27;28.23;;;;;;;5.79;100.00;99524.69;681304;29;1681;-84
2021/11/04 00:28:56;;;;;;;53.03;28.30;;;;;;;5.92;100.00;99522.06;679170;29;1379;-85
2021/11/04 00:29:16;;;;;;;54.03;28.30;;;;;;;5.88;100.00;99526.38;681810;29;5468;-84
2021/11/04 00:29:37;;;;;;;55.13;28.48;;;;;;;5.87;100.00;99529.00;681350;28;2575;-85
2021/11/04 00:29:58;;;;;;;56.47;28.27;;;;;;;5.83;100.00;99524.69;678698;29;3696;-85
2021/11/04 00:30:18;;;;;;;53.03;28.42;;;;;;;5.86;100.00;99527.28;674599;28;4381;-85
2021/11/04 00:30:39;;;;;;;50.90;28.08;;;;;;;5.87;100.00;99534.16;675558;29;1292;-84
2021/11/04 00:30:59;;;;;;;51.70;27.03;;;;;;;5.93;100.00;99542.81;678979;29;1647;-85
2021/11/04 00:31:26;;;;;;;50.95;27.77;;;;;;;5.93;100.00;99542.81;680896;28;1325;-85
2021/11/04 00:31:47;;;;;;;50.83;27.42;;;;;;;5.94;100.00;99530.69;681326;28;1406;-85
2021/11/04 00:32:10;;;;;;;50.35;27.08;;;;;;;6.00;100.00;99545.41;681475;28;4707;-84
2021/11/04 00:32:31;;;;;;;52.88;27.60;;;;;;;5.94;100.00;99518.59;677576;28;1351;-84
2021/11/04 00:32:53;;;;;;;50.70;26.65;;;;;;;6.04;100.00;99522.03;678290;29;1903;-84
2021/11/04 00:33:14;;;;;;;52.70;27.60;;;;;;;5.99;100.00;99521.19;677759;28;4389;-83
2021/11/04 00:33:38;;;;;;;52.95;27.50;;;;;;;5.98;100.00;99540.22;675599;29;2656;-84
2021/11/04 00:33:58;;;;;;;49.88;27.13;;;;;;;6.05;100.00;99533.28;678317;29;5862;-84
2021/11/04 00:34:19;;;;;;;49.35;27.38;;;;;;;5.97;100.00;99546.25;681826;29;1308;-84
2021/11/04 00:34:40;;;;;;;56.00;28.40;;;;;;;5.96;100.00;99528.97;678515;29;1252;-84
2021/11/04 00:35:01;;;;;;;51.13;27.90;;;;;;;5.94;100.00;99535.88;676237;29;1243;-85
2021/11/04 00:35:22;;;;;;;48.75;27.30;;;;;;;5.90;100.00;99549.75;680754;29;1438;-84
2021/11/04 00:35:43;;;;;;;50.20;26.80;;;;;;;5.88;100.00;99544.53;680676;29;1429;-85
2021/11/04 00:36:04;;;;;;;51.50;27.37;;;;;;;5.87;100.00;99544.56;678474;28;4446;-84
2021/11/04 00:36:25;;;;;;;51.53;27.45;;;;;;;5.84;100.00;99524.66;675167;29;4165;-84
2021/11/04 00:36:45;;;;;;;50.40;27.83;;;;;;;5.85;100.00;99528.16;677482;29;2107;-84
2021/11/04 00:37:06;;;;;;;52.45;27.80;;;;;;;5.82;100.00;99549.75;670870;29;1549;-84
2021/11/04 00:37:27;;;;;;;52.40;28.45;;;;;;;5.80;100.00;99531.63;675194;29;1655;-84
2021/11/04 00:37:49;;;;;;;53.57;28.73;;;;;;;5.79;100.00;99529.03;677003;29;1298;-84
2021/11/04 00:38:10;;;;;;;54.63;28.10;;;;;;;5.75;100.00;99546.31;680722;28;5042;-85
2021/11/04 00:38:30;;;;;;;54.45;28.05;;;;;;;5.80;100.00;99549.78;684005;28;1193;-84
2021/11/04 00:38:51;;;;;;;55.00;28.30;;;;;;;5.81;100.00;99540.25;680996;29;1343;-84
2021/11/04 00:39:12;;;;;;;50.85;28.05;;;;;;;5.83;100.00;99558.41;678171;28;4433;-84
2021/11/04 00:39:32;;;;;;;53.80;28.30;;;;;;;5.80;100.00;99536.81;676191;29;1437;-84
2021/11/04 00:39:53;;;;;;;52.72;26.77;;;;;;;5.77;100.00;99538.53;675400;29;2900;-84
2021/11/04 00:40:20;;;;;;;53.23;27.77;;;;;;;5.77;100.00;99526.44;676301;29;1440;-84
2021/11/04 00:40:41;;;;;;;52.42;28.27;;;;;;;5.77;100.00;99528.16;675750;29;1261;-88
2021/11/04 00:41:04;;;;;;;55.20;28.13;;;;;;;5.74;100.00;99531.63;681061;29;1253;-85
2021/11/04 00:41:25;;;;;;;55.72;28.70;;;;;;;5.71;100.00;99547.19;674977;29;5524;-85
2021/11/04 00:41:48;;;;;;;56.10;28.70;;;;;;;5.70;100.00;99532.50;678841;29;1716;-84
2021/11/04 00:42:09;;;;;;;57.10;28.98;;;;;;;5.67;100.00;99542.03;675343;29;4703;-85
2021/11/04 00:42:31;;;;;;;58.47;29.67;;;;;;;5.67;100.00;99532.50;670121;29;2947;-84
2021/11/04 00:42:51;;;;;;;53.67;29.00;;;;;;;5.65;100.00;99526.47;675750;29;5977;-85
2021/11/04 00:43:15;;;;;;;55.77;29.37;;;;;;;5.67;100.00;99549.81;678836;29;1879;-84
2021/11/04 00:43:35;;;;;;;57.33;29.67;;;;;;;5.67;100.00;99536.84;674842;29;5071;-85
2021/11/04 00:44:02;;;;;;;56.37;28.27;;;;;;;5.70;100.00;99542.88;680747;29;1381;-84
2021/11/04 00:44:23;;;;;;;57.67;29.27;;;;;;;5.69;100.00;99543.75;681047;29;5142;-84
2021/11/04 00:44:51;;;;;;;56.45;28.38;;;;;;;5.70;100.00;99545.47;681316;28;1559;-85
2021/11/04 00:45:15;;;;;;;54.83;28.08;;;;;;;5.69;100.00;99535.09;679687;28;5636;-84
2021/11/04 00:45:36;;;;;;;51.47;28.10;;;;;;;5.70;100.00;99540.28;678332;29;5756;-85
2021/11/04 00:45:56;;;;;;;53.43;27.70;;;;;;;5.74;100.00;99526.44;680166;29;1319;-84
2021/11/04 00:46:17;;;;;;;54.78;28.48;;;;;;;5.76;100.00;99527.31;680661;29;1359;-84
2021/11/04 00:46:39;;;;;;;56.10;28.23;;;;;;;5.78;100.00;99528.16;678301;29;1325;-85
2021/11/04 00:47:03;;;;;;;52.05;27.58;;;;;;;5.78;100.00;99529.88;678142;29;1311;-84
2021/11/04 00:47:32;;;;;;;52.78;28.17;;;;;;;5.74;100.00;99554.09;678521;29;1430;-85
2021/11/04 00:47:53;;;;;;;55.20;28.67;;;;;;;5.73;100.00;99529.91;680718;29;1071;-84
2021/11/04 00:48:13;;;;;;;56.83;28.90;;;;;;;5.73;100.00;99537.69;669892;28;4712;-84
2021/11/04 00:48:37;;;;;;;54.08;28.65;;;;;;;5.70;100.00;99548.06;675947;29;1388;-85
2021/11/04 00:49:00;;;;;;;53.90;28.73;;;;;;;5.70;100.00;99529.91;678099;29;1328;-85
2021/11/04 00:49:21;;;;;;;55.65;28.58;;;;;;;5.72;100.00;99524.72;676739;29;1229;-85
2021/11/04 00:49:42;;;;;;;55.65;28.92;;;;;;;5.72;100.00;99529.91;678862;29;1462;-85
2021/11/04 00:50:09;;;;;;;59.10;29.05;;;;;;;5.72;100.00;99530.78;681340;28;1313;-84
2021/11/04 00:50:30;;;;;;;57.67;29.23;;;;;;;5.73;100.00;99558.44;677657;29;5379;-85
2021/11/04 00:50:51;;;;;;;54.63;28.63;;;;;;;5.76;100.00;99531.63;676703;29;1201;-85
2021/11/04 00:51:12;;;;;;;54.30;27.95;;;;;;;5.75;100.00;99561.03;678526;29;4598;-84
2021/11/04 00:51:35;;;;;;;57.53;28.85;;;;;;;5.74;100.00;99534.22;675330;29;1527;-85
2021/11/04 00:51:58;;;;;;;58.08;29.55;;;;;;;5.72;100.00;99543.75;677534;29;1928;-85
2021/11/04 00:52:19;;;;;;;56.63;28.88;;;;;;;5.75;100.00;99563.63;678923;29;1450;-85
2021/11/04 00:52:39;;;;;;;55.63;28.97;;;;;;;5.74;100.00;99538.56;679663;29;1282;-85
2021/11/04 00:53:00;;;;;;;56.05;29.35;;;;;;;5.72;100.00;99538.56;681325;29;1891;-85
2021/11/04 00:53:27;;;;;;;54.70;28.55;;;;;;;5.72;100.00;99535.97;679839;29;1302;-84
2021/11/04 00:53:50;;;;;;;52.92;28.23;;;;;;;5.70;100.00;99532.50;681348;28;4778;-86
2021/11/04 00:54:10;;;;;;;55.70;29.30;;;;;;;5.68;100.00;99562.78;681661;28;4769;-85
2021/11/04 00:54:31;;;;;;;58.10;29.43;;;;;;;5.68;100.00;99534.25;683721;28;1773;-85
2021/11/04 00:54:52;;;;;;;58.95;29.23;;;;;;;5.71;100.00;99554.97;680129;29;1618;-84
2021/11/04 00:55:13;;;;;;;59.60;29.23;;;;;;;5.69;100.00;99556.72;681679;29;1304;-85
2021/11/04 00:55:33;;;;;;;55.42;28.05;;;;;;;5.69;100.00;99567.09;683639;28;1184;-85
2021/11/04 00:55:56;;;;;;;55.17;28.43;;;;;;;5.80;100.00;99544.59;682840;28;1622;-85
2021/11/04 00:56:17;;;;;;;51.47;27.85;;;;;;;5.79;100.00;99560.16;684047;28;1436;-85
2021/11/04 00:56:41;;;;;;;55.17;29.42;;;;;;;5.76;100.00;99568.81;683553;28;1211;-85
2021/11/04 00:57:05;;;;;;;61.90;29.13;;;;;;;5.75;100.00;99537.69;684215;28;1951;-85
2021/11/04 00:57:25;;;;;;;59.45;28.73;;;;;;;5.72;100.00;99535.97;681899;28;4767;-85
2021/11/04 00:57:48;;;;;;;53.30;27.92;;;;;;;5.71;100.00;99559.31;676168;29;1511;-85
2021/11/04 00:58:09;;;;;;;53.15;28.17;;;;;;;5.78;100.00;99550.63;676934;29;1298;-85
2021/11/04 00:58:33;;;;;;;52.72;27.73;;;;;;;5.75;100.00;99556.69;676606;29;1411;-84
2021/11/04 00:58:57;;;;;;;54.85;29.27;;;;;;;5.76;100.00;99574.00;678473;29;1433;-85
2021/11/04 00:59:17;;;;;;;53.55;27.88;;;;;;;5.78;100.00;99558.41;677621;29;1128;-85
2021/11/04 00:59:38;;;;;;;52.95;27.92;;;;;;;5.76;100.00;99553.25;678226;29;1853;-85
2021/11/04 00:59:59;;;;;;;54.27;28.53;;;;;;;5.76;100.00;99553.25;678014;29;1587;-85
2021/11/04 01:00:20;;;;;;;56.33;28.17;;;;;;;5.76;100.00;99562.72;676685;29;4337;-85
2021/11/04 01:00:41;;;;;;;55.63;28.30;;;;;;;5.74;100.00;99533.38;677903;29;2984;-86
2021/11/04 01:01:04;;;;;;;54.90;28.15;;;;;;;5.74;100.00;99554.97;676764;29;1574;-85
2021/11/04 01:01:28;;;;;;;52.58;28.35;;;;;;;5.67;100.00;99540.28;678980;29;4805;-85
2021/11/04 01:01:49;;;;;;;55.83;28.23;;;;;;;5.67;100.00;99558.44;677645;29;6602;-85
2021/11/04 01:02:09;;;;;;;56.75;28.83;;;;;;;5.67;100.00;99552.41;676814;29;1388;-86
2021/11/04 01:02:30;;;;;;;58.70;29.20;;;;;;;5.65;100.00;99529.06;676533;29;1726;-85
2021/11/04 01:02:53;;;;;;;59.33;29.70;;;;;;;5.65;100.00;99567.09;676296;29;1293;-85
2021/11/04 01:03:14;;;;;;;56.03;28.25;;;;;;;5.63;100.00;99552.41;667943;29;4994;-85
2021/11/04 01:03:35;;;;;;;56.75;29.27;;;;;;;5.65;100.00;99554.13;680938;29;1380;-85
2021/11/04 01:03:58;;;;;;;54.43;28.80;;;;;;;5.65;100.00;99529.06;680752;29;1316;-84
2021/11/04 01:04:19;;;;;;;56.25;28.15;;;;;;;5.60;100.00;99536.84;683833;28;4986;-85
2021/11/04 01:04:40;;;;;;;56.92;28.88;;;;;;;5.61;100.00;99553.28;681258;29;1645;-86
2021/11/04 01:05:01;;;;;;;56.70;29.35;;;;;;;5.61;100.00;99541.19;681561;29;1496;-85
2021/11/04 01:05:22;;;;;;;56.95;28.27;;;;;;;5.62;100.00;99555.00;676420;29;1303;-84
2021/11/04 01:05:44;;;;;;;57.17;29.02;;;;;;;5.63;100.00;99552.41;670910;29;3349;-85
2021/11/04 01:06:05;;;;;;;58.40;29.63;;;;;;;5.63;100.00;99552.41;675328;29;4419;-85
2021/11/04 01:06:26;;;;;;;61.60;29.45;;;;;;;5.65;100.00;99533.38;677479;29;1266;-85
2021/11/04 01:06:46;;;;;;;57.47;28.40;;;;;;;5.64;100.00;99529.94;676094;29;1734;-85
2021/11/04 01:07:07;;;;;;;57.28;28.95;;;;;;;5.63;100.00;99535.97;678837;29;1653;-85
2021/11/04 01:07:38;;;;;;;57.57;29.63;;;;;;;5.66;100.00;99530.78;680400;29;1488;-85
2021/11/04 01:07:59;;;;;;;58.53;29.55;;;;;;;5.62;100.00;99550.69;679861;29;5378;-86
2021/11/04 01:08:20;;;;;;;59.35;28.98;;;;;;;5.62;100.00;99555.88;677460;29;1421;-85
2021/11/04 01:08:41;;;;;;;55.75;28.27;;;;;;;5.63;100.00;99556.72;677418;29;1686;-84
2021/11/04 01:09:02;;;;;;;57.50;29.30;;;;;;;5.62;100.00;99532.53;678069;28;2376;-85
2021/11/04 01:09:23;;;;;;;54.50;28.15;;;;;;;5.64;100.00;99527.34;674820;29;4623;-85
2021/11/04 01:09:43;;;;;;;56.53;28.77;;;;;;;5.65;100.00;99526.47;676386;29;1530;-85
2021/11/04 01:10:14;;;;;;;60.15;29.67;;;;;;;5.65;100.00;99529.06;676442;29;1368;-85
2021/11/04 01:10:35;;;;;;;55.75;28.80;;;;;;;5.63;100.00;99525.59;675658;29;1489;-84
2021/11/04 01:10:55;;;;;;;57.28;30.13;;;;;;;5.66;100.00;99550.69;671411;29;1498;-85
2021/11/04 01:11:17;;;;;;;61.40;30.40;;;;;;;5.65;100.00;99526.47;673284;29;1580;-85
2021/11/04 01:11:37;;;;;;;63.03;29.52;;;;;;;5.63;100.00;99546.34;673449;29;1382;-85
2021/11/04 01:11:58;;;;;;;63.13;29.23;;;;;;;5.63;100.00;99523.91;677007;29;2577;-86
2021/11/04 01:12:19;;;;;;;62.33;30.23;;;;;;;5.60;100.00;99520.44;683389;28;4398;-85
2021/11/04 01:12:42;;;;;;;58.58;29.52;;;;;;;5.58;100.00;99545.50;677861;29;5208;-85
2021/11/04 01:13:12;;;;;;;54.50;28.25;;;;;;;5.60;100.00;99530.81;676298;29;1931;-87
2021/11/04 01:13:33;;;;;;;56.60;28.20;;;;;;;5.62;100.00;99521.28;677622;29;5613;-85
2021/11/04 01:13:54;;;;;;;56.60;28.48;;;;;;;5.62;100.00;99550.69;675312;29;1289;-85
2021/11/04 01:14:15;;;;;;;59.97;28.43;;;;;;;5.63;100.00;99547.22;675322;29;1789;-85
2021/11/04 01:14:35;;;;;;;54.97;27.83;;;;;;;5.63;100.00;99543.75;675847;29;1516;-85
2021/11/04 01:14:58;;;;;;;60.15;29.38;;;;;;;5.61;100.00;99517.00;674831;29;5087;-85
2021/11/04 01:15:20;;;;;;;60.63;29.73;;;;;;;5.60;100.00;99541.19;678342;29;4466;-85
2021/11/04 01:15:40;;;;;;;62.42;30.15;;;;;;;5.62;100.00;99534.25;672309;29;1461;-85
2021/11/04 01:16:01;;;;;;;59.13;29.63;;;;;;;5.63;100.00;99543.75;676136;29;1489;-84
2021/11/04 01:16:24;;;;;;;58.47;29.75;;;;;;;5.61;100.00;99545.50;676088;29;1564;-85
2021/11/04 01:16:45;;;;;;;57.28;28.92;;;;;;;5.61;100.00;99522.19;677051;29;5362;-85
2021/11/04 01:17:08;;;;;;;59.57;29.40;;;;;;;5.61;100.00;99517.84;679121;29;1890;-85
2021/11/04 01:17:30;;;;;;;58.35;29.00;;;;;;;5.61;100.00;99524.75;675964;29;4720;-84
2021/11/04 01:17:51;;;;;;;60.47;29.85;;;;;;;5.59;100.00;99537.75;676528;29;2794;-86
2021/11/04 01:18:12;;;;;;;61.05;29.73;;;;;;;5.62;100.00;99514.38;676581;28;4381;-84
2021/11/04 01:18:33;;;;;;;58.93;29.83;;;;;;;5.67;100.00;99513.50;679629;29;1331;-85
2021/11/04 01:18:56;;;;;;;58.40;29.23;;;;;;;5.65;100.00;99520.41;679113;29;1469;-85
2021/11/04 01:19:17;;;;;;;57.72;28.27;;;;;;;5.66;100.00;99522.16;674934;29;5627;-85
2021/11/04 01:19:37;;;;;;;54.63;28.10;;;;;;;5.66;100.00;99530.78;672703;29;1384;-85
2021/11/04 01:19:58;;;;;;;55.80;28.92;;;;;;;5.67;100.00;99513.50;670545;29;1390;-86
2021/11/04 01:20:19;;;;;;;57.90;29.33;;;;;;;5.67;100.00;99516.97;678261;29;1291;-85
2021/11/04 01:20:40;;;;;;;61.60;30.17;;;;;;;5.66;100.00;99524.75;678142;29;2088;-84
2021/11/04 01:21:00;;;;;;;60.20;29.63;;;;;;;5.66;100.00;99530.78;677828;29;4250;-85
2021/11/04 01:21:21;;;;;;;57.73;29.00;;;;;;;5.65;100.00;99518.72;678040;28;4319;-85
2021/11/04 01:21:42;;;;;;;62.67;29.58;;;;;;;5.65;100.00;99518.72;682242;28;1652;-85
2021/11/04 01:22:05;;;;;;;62.55;30.23;;;;;;;5.62;100.00;99516.97;679541;29;1324;-84
2021/11/04 01:22:26;;;;;;;62.20;29.88;;;;;;;5.62;100.00;99529.94;677935;29;5118;-85
2021/11/04 01:22:47;;;;;;;58.20;28.90;;;;;;;5.63;100.00;99515.25;677969;29;1343;-85
2021/11/04 01:23:08;;;;;;;58.90;28.45;;;;;;;5.62;100.00;99513.50;675867;29;1416;-86
2021/11/04 01:23:29;;;;;;;59.35;28.95;;;;;;;5.61;100.00;99522.19;678237;29;1188;-85
2021/11/04 01:23:49;;;;;;;60.67;29.87;;;;;;;5.58;100.00;99516.97;678130;29;4380;-85
2021/11/04 01:24:25;;;;;;;59.78;29.92;;;;;;;5.61;100.00;99532.53;669399;29;4537;-85
2021/11/04 01:24:48;;;;;;;58.17;29.73;;;;;;;5.62;100.00;99511.78;677674;29;5650;-85
2021/11/04 01:25:22;;;;;;;59.72;29.33;;;;;;;5.61;100.00;99511.81;681524;28;4731;-85
2021/11/04 01:25:43;;;;;;;59.90;30.27;;;;;;;5.60;100.00;99528.22;680495;28;6018;-85
2021/11/04 01:26:04;;;;;;;59.90;29.88;;;;;;;5.59;100.00;99523.88;681261;29;1290;-85
2021/11/04 01:26:25;;;;;;;60.00;29.67;;;;;;;5.60;100.00;99516.09;681683;28;1286;-85
2021/11/04 01:26:45;;;;;;;55.65;29.10;;;;;;;5.59;100.00;99505.75;679389;29;2608;-85
2021/11/04 01:27:06;;;;;;;58.10;28.97;;;;;;;5.60;100.00;99538.59;669979;28;4437;-86
2021/11/04 01:27:27;;;;;;;58.00;28.93;;;;;;;5.60;100.00;99526.47;678618;29;1538;-86
2021/11/04 01:27:47;;;;;;;61.22;29.38;;;;;;;5.57;100.00;99536.88;678172;29;1193;-86
2021/11/04 01:28:08;;;;;;;61.05;29.88;;;;;;;5.56;100.00;99503.16;676140;29;1455;-84
2021/11/04 01:28:29;;;;;;;59.22;29.30;;;;;;;5.57;100.00;99531.69;678808;29;1117;-86
2021/11/04 01:28:50;;;;;;;56.87;28.47;;;;;;;5.58;100.00;99504.00;678926;29;1056;-85
2021/11/04 01:29:11;;;;;;;56.30;29.65;;;;;;;5.59;100.00;99522.19;680853;29;1387;-85
2021/11/04 01:29:31;;;;;;;56.60;29.55;;;;;;;5.59;100.00;99527.38;679099;29;4129;-85
2021/11/04 01:29:52;;;;;;;56.92;28.63;;;;;;;5.64;100.00;99511.78;676024;29;3843;-85
2021/11/04 01:30:13;;;;;;;58.75;29.10;;;;;;;5.68;100.00;99508.31;676972;29;4409;-86
2021/11/04 01:30:38;;;;;;;56.13;27.77;;;;;;;5.68;100.00;99542.03;679174;29;1123;-85
2021/11/04 01:30:58;;;;;;;56.35;28.88;;;;;;;5.66;100.00;99527.34;679229;29;5303;-85
2021/11/04 01:31:19;;;;;;;58.40;28.17;;;;;;;5.66;100.00;99510.03;678884;28;1355;-85
2021/11/04 01:31:40;;;;;;;56.85;27.63;;;;;;;5.66;100.00;99525.59;677992;29;1330;-85
2021/11/04 01:32:00;;;;;;;55.83;28.27;;;;;;;5.67;100.00;99516.97;678178;29;1445;-85
2021/11/04 01:32:22;;;;;;;56.93;28.80;;;;;;;5.68;100.00;99536.84;674044;29;1383;-85
2021/11/04 01:32:43;;;;;;;56.00;28.55;;;;;;;5.68;100.00;99513.50;672081;29;4005;-86
2021/11/04 01:33:05;;;;;;;54.95;28.13;;;;;;;5.67;100.00;99508.31;673779;29;4488;-84
2021/11/04 01:33:32;;;;;;;52.45;27.60;;;;;;;5.66;100.00;99512.63;675010;29;4907;-85
2021/11/04 01:33:56;;;;;;;54.83;27.92;;;;;;;5.70;100.00;99532.50;677557;29;5407;-85
2021/11/04 01:34:17;;;;;;;56.38;28.65;;;;;;;5.68;100.00;99510.91;681019;29;5430;-84
2021/11/04 01:34:38;;;;;;;56.33;28.37;;;;;;;5.67;100.00;99532.50;680978;29;1029;-85
2021/11/04 01:35:00;;;;;;;56.63;29.07;;;;;;;5.68;100.00;99541.19;681435;29;1333;-85
2021/11/04 01:35:21;;;;;;;56.90;28.48;;;;;;;5.66;100.00;99559.31;678093;29;5967;-85
2021/11/04 01:35:42;;;;;;;57.57;28.20;;;;;;;5.64;100.00;99532.53;677448;29;2676;-85
2021/11/04 01:36:02;;;;;;;54.25;28.33;;;;;;;5.63;100.00;99536.88;673120;29;4397;-85
2021/11/04 01:36:23;;;;;;;53.75;28.88;;;;;;;5.64;100.00;99529.94;675814;29;1687;-85
2021/11/04 01:36:43;;;;;;;56.07;29.60;;;;;;;5.62;100.00;99532.53;675714;29;1277;-85
2021/11/04 01:37:04;;;;;;;54.70;28.48;;;;;;;5.66;100.00;99530.78;676361;29;1605;-86
2021/11/04 01:37:24;;;;;;;57.60;29.65;;;;;;;5.65;100.00;99523.88;678534;29;1280;-85
2021/11/04 01:37:45;;;;;;;58.20;29.67;;;;;;;5.72;100.00;99523.00;681134;29;1411;-85
2021/11/04 01:38:09;;;;;;;56.70;28.92;;;;;;;5.74;100.00;99523.84;679104;29;1283;-87
2021/11/04 01:38:29;;;;;;;55.00;28.88;;;;;;;5.73;100.00;99537.69;678900;28;3493;-84
2021/11/04 01:38:50;;;;;;;56.03;28.83;;;;;;;5.91;100.00;99526.41;677693;29;2021;-85
2021/11/04 01:39:11;;;;;;;52.97;27.97;;;;;;;5.93;100.00;99528.97;678208;29;4380;-85
2021/11/04 01:39:34;;;;;;;51.80;27.45;;;;;;;5.92;100.00;99522.06;678242;29;1506;-86
2021/11/04 01:39:55;;;;;;;49.33;27.45;;;;;;;5.89;100.00;99542.81;679245;29;1555;-85
2021/11/04 01:40:19;;;;;;;51.97;28.20;;;;;;;5.88;100.00;99548.88;678936;29;1628;-85
2021/11/04 01:40:48;;;;;;;50.00;26.98;;;;;;;5.89;100.00;99527.25;677912;29;5123;-84
2021/11/04 01:41:09;;;;;;;51.58;27.25;;;;;;;5.86;100.00;99522.09;678687;29;1602;-85
2021/11/04 01:41:31;;;;;;;51.35;27.80;;;;;;;5.86;100.00;99524.69;681085;29;4159;-84
2021/11/04 01:41:53;;;;;;;50.22;28.13;;;;;;;5.82;100.00;99518.63;681712;28;2393;-85
2021/11/04 01:42:13;;;;;;;48.85;27.52;;;;;;;5.83;100.00;99535.06;677405;29;4461;-85
2021/11/04 01:42:37;;;;;;;49.65;27.55;;;;;;;5.80;100.00;99544.59;678334;29;5365;-85
2021/11/04 01:43:04;;;;;;;52.03;27.63;;;;;;;5.78;100.00;99541.13;676234;29;1407;-85
2021/11/04 01:43:25;;;;;;;48.00;27.02;;;;;;;5.79;100.00;99521.25;672939;29;1167;-85